sensor_id;sensor_type;location;lat;lon;timestamp;temperature;humidity
52034;DHT22;38045;52.988;6.536;2023-02-04T00:01:31;6.80;99.90
52034;DHT22;38045;52.988;6.536;2023-02-04T00:03:57;6.80;99.90
52034;DHT22;38045;52.988;6.536;2023-02-04T00:06:23;6.80;99.90
52034;DHT22;38045;52.988;6.536;2023-02-04T00:08:48;6.80;99.90
52034;DHT22;38045;52.988;6.536;2023-02-04T00:11:14;6.80;99.90
52034;DHT22;38045;52.988;6.536;2023-02-04T00:13:39;6.80;99.90
52034;DHT22;38045;52.988;6.536;2023-02-04T00:16:05;6.80;99.90
52034;DHT22;38045;52.988;6.536;2023-02-04T00:18:31;6.80;99.90
52034;DHT22;38045;52.988;6.536;2023-02-04T00:20:56;6.70;99.90
52034;DHT22;38045;52.988;6.536;2023-02-04T00:23:22;6.80;99.90
52034;DHT22;38045;52.988;6.536;2023-02-04T00:25:48;6.70;99.90
52034;DHT22;38045;52.988;6.536;2023-02-04T00:28:13;6.70;99.90
52034;DHT22;38045;52.988;6.536;2023-02-04T00:30:39;6.70;99.90
52034;DHT22;38045;52.988;6.536;2023-02-04T00:33:04;6.70;99.90
52034;DHT22;38045;52.988;6.536;2023-02-04T00:35:30;6.70;99.90
52034;DHT22;38045;52.988;6.536;2023-02-04T00:37:56;6.70;99.90
52034;DHT22;38045;52.988;6.536;2023-02-04T00:40:21;6.70;99.90
52034;DHT22;38045;52.988;6.536;2023-02-04T00:42:47;6.70;99.90
52034;DHT22;38045;52.988;6.536;2023-02-04T00:45:12;6.70;99.90
52034;DHT22;38045;52.988;6.536;2023-02-04T00:47:38;6.70;99.90
52034;DHT22;38045;52.988;6.536;2023-02-04T00:50:04;6.70;99.90
52034;DHT22;38045;52.988;6.536;2023-02-04T00:52:30;6.70;99.90
52034;DHT22;38045;52.988;6.536;2023-02-04T00:54:56;6.70;99.90
52034;DHT22;38045;52.988;6.536;2023-02-04T00:57:21;6.80;99.90
52034;DHT22;38045;52.988;6.536;2023-02-04T00:59:47;6.80;99.90
52034;DHT22;38045;52.988;6.536;2023-02-04T01:02:12;6.80;99.90
52034;DHT22;38045;52.988;6.536;2023-02-04T01:04:38;6.80;99.90
52034;DHT22;38045;52.988;6.536;2023-02-04T01:07:04;6.70;99.90
52034;DHT22;38045;52.988;6.536;2023-02-04T01:09:29;6.70;99.90
52034;DHT22;38045;52.988;6.536;2023-02-04T01:11:55;6.70;99.90
52034;DHT22;38045;52.988;6.536;2023-02-04T01:14:20;6.70;99.90
52034;DHT22;38045;52.988;6.536;2023-02-04T01:16:46;6.70;99.90
52034;DHT22;38045;52.988;6.536;2023-02-04T01:19:12;6.80;99.90
52034;DHT22;38045;52.988;6.536;2023-02-04T01:21:37;6.70;99.90
52034;DHT22;38045;52.988;6.536;2023-02-04T01:24:03;6.80;99.90
52034;DHT22;38045;52.988;6.536;2023-02-04T01:26:29;6.80;99.90
52034;DHT22;38045;52.988;6.536;2023-02-04T01:28:54;6.80;99.90
52034;DHT22;38045;52.988;6.536;2023-02-04T01:31:20;6.80;99.90
52034;DHT22;38045;52.988;6.536;2023-02-04T01:33:45;6.80;99.90
52034;DHT22;38045;52.988;6.536;2023-02-04T01:36:11;6.80;99.90
52034;DHT22;38045;52.988;6.536;2023-02-04T01:38:37;6.80;99.90
52034;DHT22;38045;52.988;6.536;2023-02-04T01:41:04;6.70;99.90
52034;DHT22;38045;52.988;6.536;2023-02-04T01:43:30;6.70;99.90
52034;DHT22;38045;52.988;6.536;2023-02-04T01:45:56;6.70;99.90
52034;DHT22;38045;52.988;6.536;2023-02-04T01:48:22;6.70;99.90
52034;DHT22;38045;52.988;6.536;2023-02-04T01:50:51;6.80;99.90
52034;DHT22;38045;52.988;6.536;2023-02-04T01:53:25;6.80;99.90
52034;DHT22;38045;52.988;6.536;2023-02-04T01:55:51;6.80;99.90
52034;DHT22;38045;52.988;6.536;2023-02-04T01:58:17;6.80;99.90
52034;DHT22;38045;52.988;6.536;2023-02-04T02:00:43;6.80;99.90
52034;DHT22;38045;52.988;6.536;2023-02-04T02:03:09;6.80;99.90
52034;DHT22;38045;52.988;6.536;2023-02-04T02:05:43;6.90;99.90
52034;DHT22;38045;52.988;6.536;2023-02-04T02:08:09;6.90;99.90
52034;DHT22;38045;52.988;6.536;2023-02-04T02:10:36;6.90;99.90
52034;DHT22;38045;52.988;6.536;2023-02-04T02:13:04;6.90;99.90
52034;DHT22;38045;52.988;6.536;2023-02-04T02:15:30;6.90;99.90
52034;DHT22;38045;52.988;6.536;2023-02-04T02:17:55;6.90;99.90
52034;DHT22;38045;52.988;6.536;2023-02-04T02:20:23;6.90;99.90
52034;DHT22;38045;52.988;6.536;2023-02-04T02:23:03;6.90;99.90
52034;DHT22;38045;52.988;6.536;2023-02-04T02:25:31;6.90;99.90
52034;DHT22;38045;52.988;6.536;2023-02-04T02:27:57;6.90;99.90
52034;DHT22;38045;52.988;6.536;2023-02-04T02:30:24;6.80;99.90
52034;DHT22;38045;52.988;6.536;2023-02-04T02:32:52;6.80;99.90
52034;DHT22;38045;52.988;6.536;2023-02-04T02:35:18;6.80;99.90
52034;DHT22;38045;52.988;6.536;2023-02-04T02:37:44;6.90;99.90
52034;DHT22;38045;52.988;6.536;2023-02-04T02:40:10;6.80;99.90
52034;DHT22;38045;52.988;6.536;2023-02-04T02:42:36;6.90;99.90
52034;DHT22;38045;52.988;6.536;2023-02-04T02:45:06;6.90;99.90
52034;DHT22;38045;52.988;6.536;2023-02-04T02:47:35;6.90;99.90
52034;DHT22;38045;52.988;6.536;2023-02-04T02:50:00;6.80;99.90
52034;DHT22;38045;52.988;6.536;2023-02-04T02:52:26;6.90;99.90
52034;DHT22;38045;52.988;6.536;2023-02-04T02:54:52;6.90;99.90
52034;DHT22;38045;52.988;6.536;2023-02-04T02:57:20;6.80;99.90
52034;DHT22;38045;52.988;6.536;2023-02-04T02:59:47;6.80;99.90
52034;DHT22;38045;52.988;6.536;2023-02-04T03:02:15;6.80;99.90
52034;DHT22;38045;52.988;6.536;2023-02-04T03:04:47;6.80;99.90
52034;DHT22;38045;52.988;6.536;2023-02-04T03:07:15;6.80;99.90
52034;DHT22;38045;52.988;6.536;2023-02-04T03:09:42;6.80;99.90
52034;DHT22;38045;52.988;6.536;2023-02-04T03:12:08;6.80;99.90
52034;DHT22;38045;52.988;6.536;2023-02-04T03:14:34;6.80;99.90
52034;DHT22;38045;52.988;6.536;2023-02-04T03:17:02;6.80;99.90
52034;DHT22;38045;52.988;6.536;2023-02-04T03:19:29;6.90;99.90
52034;DHT22;38045;52.988;6.536;2023-02-04T03:21:55;6.90;99.90
52034;DHT22;38045;52.988;6.536;2023-02-04T03:24:22;6.80;99.90
52034;DHT22;38045;52.988;6.536;2023-02-04T03:26:48;6.80;99.90
52034;DHT22;38045;52.988;6.536;2023-02-04T03:29:14;6.80;99.90
52034;DHT22;38045;52.988;6.536;2023-02-04T03:31:40;6.80;99.90
52034;DHT22;38045;52.988;6.536;2023-02-04T03:34:05;6.80;99.90
52034;DHT22;38045;52.988;6.536;2023-02-04T03:36:31;6.80;99.90
52034;DHT22;38045;52.988;6.536;2023-02-04T03:38:57;6.80;99.90
52034;DHT22;38045;52.988;6.536;2023-02-04T03:41:22;6.80;99.90
52034;DHT22;38045;52.988;6.536;2023-02-04T03:43:48;6.70;99.90
52034;DHT22;38045;52.988;6.536;2023-02-04T03:46:14;6.70;99.90
52034;DHT22;38045;52.988;6.536;2023-02-04T03:48:39;6.70;99.90
52034;DHT22;38045;52.988;6.536;2023-02-04T03:51:05;6.70;99.90
52034;DHT22;38045;52.988;6.536;2023-02-04T03:53:30;6.70;99.90
52034;DHT22;38045;52.988;6.536;2023-02-04T03:55:56;6.70;99.90
52034;DHT22;38045;52.988;6.536;2023-02-04T03:58:23;6.70;99.90
52034;DHT22;38045;52.988;6.536;2023-02-04T04:00:48;6.70;99.90
52034;DHT22;38045;52.988;6.536;2023-02-04T04:03:14;6.70;99.90
52034;DHT22;38045;52.988;6.536;2023-02-04T04:05:40;6.70;99.90
52034;DHT22;38045;52.988;6.536;2023-02-04T04:08:06;6.70;99.90
52034;DHT22;38045;52.988;6.536;2023-02-04T04:10:31;6.80;99.90
52034;DHT22;38045;52.988;6.536;2023-02-04T04:12:57;6.80;99.90
52034;DHT22;38045;52.988;6.536;2023-02-04T04:15:23;6.80;99.90
52034;DHT22;38045;52.988;6.536;2023-02-04T04:17:48;6.80;99.90
52034;DHT22;38045;52.988;6.536;2023-02-04T04:20:14;6.80;99.90
52034;DHT22;38045;52.988;6.536;2023-02-04T04:22:40;6.80;99.90
52034;DHT22;38045;52.988;6.536;2023-02-04T04:25:06;6.80;99.90
52034;DHT22;38045;52.988;6.536;2023-02-04T04:27:32;6.80;99.90
52034;DHT22;38045;52.988;6.536;2023-02-04T04:29:57;6.80;99.90
52034;DHT22;38045;52.988;6.536;2023-02-04T04:32:23;6.80;99.90
52034;DHT22;38045;52.988;6.536;2023-02-04T04:34:49;6.80;99.90
52034;DHT22;38045;52.988;6.536;2023-02-04T04:37:14;6.80;99.90
52034;DHT22;38045;52.988;6.536;2023-02-04T04:39:40;6.80;99.90
52034;DHT22;38045;52.988;6.536;2023-02-04T04:42:06;6.80;99.90
52034;DHT22;38045;52.988;6.536;2023-02-04T04:44:31;6.80;99.90
52034;DHT22;38045;52.988;6.536;2023-02-04T04:46:57;6.80;99.90
52034;DHT22;38045;52.988;6.536;2023-02-04T04:49:23;6.80;99.90
52034;DHT22;38045;52.988;6.536;2023-02-04T04:51:49;6.70;99.90
52034;DHT22;38045;52.988;6.536;2023-02-04T04:54:14;6.70;99.90
52034;DHT22;38045;52.988;6.536;2023-02-04T04:56:40;6.70;99.90
52034;DHT22;38045;52.988;6.536;2023-02-04T04:59:05;6.70;99.90
52034;DHT22;38045;52.988;6.536;2023-02-04T05:01:31;6.70;99.90
52034;DHT22;38045;52.988;6.536;2023-02-04T05:03:57;6.70;99.90
52034;DHT22;38045;52.988;6.536;2023-02-04T05:06:22;6.60;99.90
52034;DHT22;38045;52.988;6.536;2023-02-04T05:08:53;6.60;99.90
52034;DHT22;38045;52.988;6.536;2023-02-04T05:11:19;6.60;99.90
52034;DHT22;38045;52.988;6.536;2023-02-04T05:13:44;6.60;99.90
52034;DHT22;38045;52.988;6.536;2023-02-04T05:16:10;6.60;99.90
52034;DHT22;38045;52.988;6.536;2023-02-04T05:18:40;6.60;99.90
52034;DHT22;38045;52.988;6.536;2023-02-04T05:21:06;6.60;99.90
52034;DHT22;38045;52.988;6.536;2023-02-04T05:23:32;6.60;99.90
52034;DHT22;38045;52.988;6.536;2023-02-04T05:25:58;6.60;99.90
52034;DHT22;38045;52.988;6.536;2023-02-04T05:28:23;6.60;99.90
52034;DHT22;38045;52.988;6.536;2023-02-04T05:30:49;6.60;99.90
52034;DHT22;38045;52.988;6.536;2023-02-04T05:33:18;6.50;99.90
52034;DHT22;38045;52.988;6.536;2023-02-04T05:35:43;6.50;99.90
52034;DHT22;38045;52.988;6.536;2023-02-04T05:38:09;6.50;99.90
52034;DHT22;38045;52.988;6.536;2023-02-04T05:40:34;6.50;99.90
52034;DHT22;38045;52.988;6.536;2023-02-04T05:43:00;6.40;99.90
52034;DHT22;38045;52.988;6.536;2023-02-04T05:45:26;6.40;99.90
52034;DHT22;38045;52.988;6.536;2023-02-04T05:47:51;6.40;99.90
52034;DHT22;38045;52.988;6.536;2023-02-04T05:50:17;6.40;99.90
52034;DHT22;38045;52.988;6.536;2023-02-04T05:52:43;6.40;99.90
52034;DHT22;38045;52.988;6.536;2023-02-04T05:55:10;6.40;99.90
52034;DHT22;38045;52.988;6.536;2023-02-04T05:57:37;6.40;99.90
52034;DHT22;38045;52.988;6.536;2023-02-04T06:00:04;6.40;99.90
52034;DHT22;38045;52.988;6.536;2023-02-04T06:02:30;6.40;99.90
52034;DHT22;38045;52.988;6.536;2023-02-04T06:04:56;6.40;99.90
52034;DHT22;38045;52.988;6.536;2023-02-04T06:07:21;6.40;99.90
52034;DHT22;38045;52.988;6.536;2023-02-04T06:09:47;6.30;99.90
52034;DHT22;38045;52.988;6.536;2023-02-04T06:12:12;6.30;99.90
52034;DHT22;38045;52.988;6.536;2023-02-04T06:14:38;6.30;99.90
52034;DHT22;38045;52.988;6.536;2023-02-04T06:17:04;6.30;99.90
52034;DHT22;38045;52.988;6.536;2023-02-04T06:19:29;6.30;99.90
52034;DHT22;38045;52.988;6.536;2023-02-04T06:21:55;6.30;99.90
52034;DHT22;38045;52.988;6.536;2023-02-04T06:24:21;6.30;99.90
52034;DHT22;38045;52.988;6.536;2023-02-04T06:26:46;6.20;99.90
52034;DHT22;38045;52.988;6.536;2023-02-04T06:29:12;6.20;99.90
52034;DHT22;38045;52.988;6.536;2023-02-04T06:31:37;6.20;99.90
52034;DHT22;38045;52.988;6.536;2023-02-04T06:34:04;6.20;99.90
52034;DHT22;38045;52.988;6.536;2023-02-04T06:36:30;6.20;99.90
52034;DHT22;38045;52.988;6.536;2023-02-04T06:38:55;6.20;99.90
52034;DHT22;38045;52.988;6.536;2023-02-04T06:41:22;6.10;99.90
52034;DHT22;38045;52.988;6.536;2023-02-04T06:43:47;6.20;99.90
52034;DHT22;38045;52.988;6.536;2023-02-04T06:46:13;6.10;99.90
52034;DHT22;38045;52.988;6.536;2023-02-04T06:48:39;6.10;99.90
52034;DHT22;38045;52.988;6.536;2023-02-04T06:51:05;6.00;99.90
52034;DHT22;38045;52.988;6.536;2023-02-04T06:53:30;6.00;99.90
52034;DHT22;38045;52.988;6.536;2023-02-04T06:55:56;6.00;99.90
52034;DHT22;38045;52.988;6.536;2023-02-04T06:58:21;6.00;99.90
52034;DHT22;38045;52.988;6.536;2023-02-04T07:00:47;5.90;99.90
52034;DHT22;38045;52.988;6.536;2023-02-04T07:03:13;5.90;99.90
52034;DHT22;38045;52.988;6.536;2023-02-04T07:05:38;5.90;99.90
52034;DHT22;38045;52.988;6.536;2023-02-04T07:08:04;5.90;99.90
52034;DHT22;38045;52.988;6.536;2023-02-04T07:10:30;5.80;99.90
52034;DHT22;38045;52.988;6.536;2023-02-04T07:12:56;5.80;99.90
52034;DHT22;38045;52.988;6.536;2023-02-04T07:15:22;5.90;99.90
52034;DHT22;38045;52.988;6.536;2023-02-04T07:17:48;5.90;99.90
52034;DHT22;38045;52.988;6.536;2023-02-04T07:20:14;5.90;99.90
52034;DHT22;38045;52.988;6.536;2023-02-04T07:22:39;5.80;99.90
52034;DHT22;38045;52.988;6.536;2023-02-04T07:25:08;5.90;99.90
52034;DHT22;38045;52.988;6.536;2023-02-04T07:27:34;5.90;99.90
52034;DHT22;38045;52.988;6.536;2023-02-04T07:30:00;5.90;99.90
52034;DHT22;38045;52.988;6.536;2023-02-04T07:32:25;5.90;99.90
52034;DHT22;38045;52.988;6.536;2023-02-04T07:34:52;5.90;99.90
52034;DHT22;38045;52.988;6.536;2023-02-04T07:37:18;5.90;99.90
52034;DHT22;38045;52.988;6.536;2023-02-04T07:39:45;5.90;99.90
52034;DHT22;38045;52.988;6.536;2023-02-04T07:42:10;5.90;99.90
52034;DHT22;38045;52.988;6.536;2023-02-04T07:44:36;5.90;99.90
52034;DHT22;38045;52.988;6.536;2023-02-04T07:47:02;5.90;99.90
52034;DHT22;38045;52.988;6.536;2023-02-04T07:49:27;5.90;99.90
52034;DHT22;38045;52.988;6.536;2023-02-04T07:51:53;5.90;99.90
52034;DHT22;38045;52.988;6.536;2023-02-04T07:54:19;5.90;99.90
52034;DHT22;38045;52.988;6.536;2023-02-04T07:56:44;5.90;99.90
52034;DHT22;38045;52.988;6.536;2023-02-04T07:59:10;6.00;99.90
52034;DHT22;38045;52.988;6.536;2023-02-04T08:01:35;6.00;99.90
52034;DHT22;38045;52.988;6.536;2023-02-04T08:04:01;6.00;99.90
52034;DHT22;38045;52.988;6.536;2023-02-04T08:06:27;6.00;99.90
52034;DHT22;38045;52.988;6.536;2023-02-04T08:08:52;6.00;99.90
52034;DHT22;38045;52.988;6.536;2023-02-04T08:11:18;6.00;99.90
52034;DHT22;38045;52.988;6.536;2023-02-04T08:13:43;6.00;99.90
52034;DHT22;38045;52.988;6.536;2023-02-04T08:16:09;6.00;99.90
52034;DHT22;38045;52.988;6.536;2023-02-04T08:18:34;6.00;99.90
52034;DHT22;38045;52.988;6.536;2023-02-04T08:21:00;6.00;99.90
52034;DHT22;38045;52.988;6.536;2023-02-04T08:23:27;6.00;99.90
52034;DHT22;38045;52.988;6.536;2023-02-04T08:25:53;6.10;99.90
52034;DHT22;38045;52.988;6.536;2023-02-04T08:28:18;6.00;99.90
52034;DHT22;38045;52.988;6.536;2023-02-04T08:30:44;6.10;99.90
52034;DHT22;38045;52.988;6.536;2023-02-04T08:33:09;6.10;99.90
52034;DHT22;38045;52.988;6.536;2023-02-04T08:35:35;6.10;99.90
52034;DHT22;38045;52.988;6.536;2023-02-04T08:38:00;6.10;99.90
52034;DHT22;38045;52.988;6.536;2023-02-04T08:40:26;6.10;99.90
52034;DHT22;38045;52.988;6.536;2023-02-04T08:42:52;6.10;99.90
52034;DHT22;38045;52.988;6.536;2023-02-04T08:45:17;6.10;99.90
52034;DHT22;38045;52.988;6.536;2023-02-04T08:47:43;6.10;99.90
52034;DHT22;38045;52.988;6.536;2023-02-04T08:50:09;6.10;99.90
52034;DHT22;38045;52.988;6.536;2023-02-04T08:52:35;6.10;99.90
52034;DHT22;38045;52.988;6.536;2023-02-04T08:55:01;6.10;99.90
52034;DHT22;38045;52.988;6.536;2023-02-04T08:57:27;6.10;99.90
52034;DHT22;38045;52.988;6.536;2023-02-04T08:59:52;6.10;99.90
52034;DHT22;38045;52.988;6.536;2023-02-04T09:02:18;6.10;99.90
52034;DHT22;38045;52.988;6.536;2023-02-04T09:04:43;6.10;99.90
52034;DHT22;38045;52.988;6.536;2023-02-04T09:07:09;6.20;99.90
52034;DHT22;38045;52.988;6.536;2023-02-04T09:09:34;6.30;99.90
52034;DHT22;38045;52.988;6.536;2023-02-04T09:12:00;6.30;99.90
52034;DHT22;38045;52.988;6.536;2023-02-04T09:14:26;6.30;99.90
52034;DHT22;38045;52.988;6.536;2023-02-04T09:16:52;6.30;99.90
52034;DHT22;38045;52.988;6.536;2023-02-04T09:19:17;6.30;99.90
52034;DHT22;38045;52.988;6.536;2023-02-04T09:21:48;6.30;99.90
52034;DHT22;38045;52.988;6.536;2023-02-04T09:24:14;6.40;99.90
52034;DHT22;38045;52.988;6.536;2023-02-04T09:26:39;6.30;99.90
52034;DHT22;38045;52.988;6.536;2023-02-04T09:29:05;6.30;99.90
52034;DHT22;38045;52.988;6.536;2023-02-04T09:31:30;6.30;99.90
52034;DHT22;38045;52.988;6.536;2023-02-04T09:33:56;6.30;99.90
52034;DHT22;38045;52.988;6.536;2023-02-04T09:36:21;6.30;99.90
52034;DHT22;38045;52.988;6.536;2023-02-04T09:38:47;6.40;99.90
52034;DHT22;38045;52.988;6.536;2023-02-04T09:41:13;6.40;99.90
52034;DHT22;38045;52.988;6.536;2023-02-04T09:43:43;6.40;99.90
52034;DHT22;38045;52.988;6.536;2023-02-04T09:46:19;6.50;99.90
52034;DHT22;38045;52.988;6.536;2023-02-04T09:48:45;6.60;99.90
52034;DHT22;38045;52.988;6.536;2023-02-04T09:51:21;6.60;99.90
52034;DHT22;38045;52.988;6.536;2023-02-04T09:53:48;6.70;99.90
52034;DHT22;38045;52.988;6.536;2023-02-04T09:56:14;6.70;99.90
52034;DHT22;38045;52.988;6.536;2023-02-04T09:58:41;6.80;99.90
52034;DHT22;38045;52.988;6.536;2023-02-04T10:01:18;6.80;99.90
52034;DHT22;38045;52.988;6.536;2023-02-04T10:03:47;6.80;99.90
52034;DHT22;38045;52.988;6.536;2023-02-04T10:06:15;6.90;99.90
52034;DHT22;38045;52.988;6.536;2023-02-04T10:08:41;7.00;99.90
52034;DHT22;38045;52.988;6.536;2023-02-04T10:11:08;7.10;99.90
52034;DHT22;38045;52.988;6.536;2023-02-04T10:13:36;7.00;99.90
52034;DHT22;38045;52.988;6.536;2023-02-04T10:16:07;7.00;99.90
52034;DHT22;38045;52.988;6.536;2023-02-04T10:18:35;7.00;99.90
52034;DHT22;38045;52.988;6.536;2023-02-04T10:21:15;7.10;99.90
52034;DHT22;38045;52.988;6.536;2023-02-04T10:23:42;7.30;99.90
52034;DHT22;38045;52.988;6.536;2023-02-04T10:26:10;7.50;99.90
52034;DHT22;38045;52.988;6.536;2023-02-04T10:28:37;7.60;99.90
52034;DHT22;38045;52.988;6.536;2023-02-04T10:31:05;7.70;99.90
52034;DHT22;38045;52.988;6.536;2023-02-04T10:33:33;7.80;99.90
52034;DHT22;38045;52.988;6.536;2023-02-04T10:36:02;7.80;99.90
52034;DHT22;38045;52.988;6.536;2023-02-04T10:38:29;7.90;99.90
52034;DHT22;38045;52.988;6.536;2023-02-04T10:41:05;8.10;99.90
52034;DHT22;38045;52.988;6.536;2023-02-04T10:43:31;8.20;99.90
52034;DHT22;38045;52.988;6.536;2023-02-04T10:46:03;8.20;99.90
52034;DHT22;38045;52.988;6.536;2023-02-04T10:48:39;8.10;99.90
52034;DHT22;38045;52.988;6.536;2023-02-04T10:51:05;8.10;99.90
52034;DHT22;38045;52.988;6.536;2023-02-04T10:53:30;8.20;99.90
52034;DHT22;38045;52.988;6.536;2023-02-04T10:56:17;8.20;99.90
52034;DHT22;38045;52.988;6.536;2023-02-04T10:58:44;8.20;99.90
52034;DHT22;38045;52.988;6.536;2023-02-04T11:01:11;8.40;99.90
52034;DHT22;38045;52.988;6.536;2023-02-04T11:03:37;8.50;99.90
52034;DHT22;38045;52.988;6.536;2023-02-04T11:06:16;8.60;99.90
52034;DHT22;38045;52.988;6.536;2023-02-04T11:08:44;8.70;99.90
52034;DHT22;38045;52.988;6.536;2023-02-04T11:11:24;8.80;99.90
52034;DHT22;38045;52.988;6.536;2023-02-04T11:16:26;9.30;99.90
52034;DHT22;38045;52.988;6.536;2023-02-04T11:18:56;9.20;99.90
52034;DHT22;38045;52.988;6.536;2023-02-04T11:26:52;9.20;99.90
52034;DHT22;38045;52.988;6.536;2023-02-04T11:29:34;9.40;99.90
52034;DHT22;38045;52.988;6.536;2023-02-04T11:34:52;9.20;99.90
52034;DHT22;38045;52.988;6.536;2023-02-04T11:37:34;9.10;99.90
52034;DHT22;38045;52.988;6.536;2023-02-04T11:40:01;9.10;99.90
52034;DHT22;38045;52.988;6.536;2023-02-04T11:42:42;9.00;99.90
52034;DHT22;38045;52.988;6.536;2023-02-04T11:45:21;9.00;99.90
52034;DHT22;38045;52.988;6.536;2023-02-04T11:47:49;9.10;99.90
52034;DHT22;38045;52.988;6.536;2023-02-04T11:52:50;9.20;99.90
52034;DHT22;38045;52.988;6.536;2023-02-04T11:55:15;9.40;99.90
52034;DHT22;38045;52.988;6.536;2023-02-04T11:57:44;9.50;99.90
52034;DHT22;38045;52.988;6.536;2023-02-04T12:00:18;9.60;99.90
52034;DHT22;38045;52.988;6.536;2023-02-04T12:02:49;9.60;99.90
52034;DHT22;38045;52.988;6.536;2023-02-04T12:05:18;9.70;99.90
52034;DHT22;38045;52.988;6.536;2023-02-04T12:07:45;9.80;99.90
52034;DHT22;38045;52.988;6.536;2023-02-04T12:10:12;9.80;99.90
52034;DHT22;38045;52.988;6.536;2023-02-04T12:12:49;10.00;99.90
52034;DHT22;38045;52.988;6.536;2023-02-04T12:15:32;10.00;99.90
52034;DHT22;38045;52.988;6.536;2023-02-04T12:18:04;10.00;99.90
52034;DHT22;38045;52.988;6.536;2023-02-04T12:20:32;9.90;99.90
52034;DHT22;38045;52.988;6.536;2023-02-04T12:22:58;10.00;99.90
52034;DHT22;38045;52.988;6.536;2023-02-04T12:25:24;9.70;99.90
52034;DHT22;38045;52.988;6.536;2023-02-04T12:27:51;9.60;99.90
52034;DHT22;38045;52.988;6.536;2023-02-04T12:30:19;9.60;99.90
52034;DHT22;38045;52.988;6.536;2023-02-04T12:32:45;9.90;99.90
52034;DHT22;38045;52.988;6.536;2023-02-04T12:35:10;10.00;99.90
52034;DHT22;38045;52.988;6.536;2023-02-04T12:37:36;10.20;99.90
52034;DHT22;38045;52.988;6.536;2023-02-04T12:40:02;10.30;99.90
52034;DHT22;38045;52.988;6.536;2023-02-04T12:42:28;10.20;99.90
52034;DHT22;38045;52.988;6.536;2023-02-04T12:44:53;10.10;99.90
52034;DHT22;38045;52.988;6.536;2023-02-04T12:47:19;10.00;99.90
52034;DHT22;38045;52.988;6.536;2023-02-04T12:49:44;10.00;99.90
52034;DHT22;38045;52.988;6.536;2023-02-04T12:52:11;10.00;99.90
52034;DHT22;38045;52.988;6.536;2023-02-04T12:54:36;10.00;99.90
52034;DHT22;38045;52.988;6.536;2023-02-04T12:57:02;10.00;99.90
52034;DHT22;38045;52.988;6.536;2023-02-04T12:59:28;10.10;99.90
52034;DHT22;38045;52.988;6.536;2023-02-04T13:01:56;10.50;99.90
52034;DHT22;38045;52.988;6.536;2023-02-04T13:04:21;10.80;99.90
52034;DHT22;38045;52.988;6.536;2023-02-04T13:06:47;11.10;99.90
52034;DHT22;38045;52.988;6.536;2023-02-04T13:09:12;11.60;99.90
52034;DHT22;38045;52.988;6.536;2023-02-04T13:11:38;12.00;99.90
52034;DHT22;38045;52.988;6.536;2023-02-04T13:14:04;12.70;99.90
52034;DHT22;38045;52.988;6.536;2023-02-04T13:16:29;13.40;99.90
52034;DHT22;38045;52.988;6.536;2023-02-04T13:18:55;14.30;99.90
52034;DHT22;38045;52.988;6.536;2023-02-04T13:21:21;15.30;99.90
52034;DHT22;38045;52.988;6.536;2023-02-04T13:23:47;16.10;99.90
52034;DHT22;38045;52.988;6.536;2023-02-04T13:26:13;16.70;99.70
52034;DHT22;38045;52.988;6.536;2023-02-04T13:28:38;17.20;98.60
52034;DHT22;38045;52.988;6.536;2023-02-04T13:31:04;17.80;99.90
52034;DHT22;38045;52.988;6.536;2023-02-04T13:33:29;17.70;98.20
52034;DHT22;38045;52.988;6.536;2023-02-04T13:35:55;17.40;96.20
52034;DHT22;38045;52.988;6.536;2023-02-04T13:38:21;17.30;95.50
52034;DHT22;38045;52.988;6.536;2023-02-04T13:40:47;17.10;99.90
52034;DHT22;38045;52.988;6.536;2023-02-04T13:43:13;16.90;99.90
52034;DHT22;38045;52.988;6.536;2023-02-04T13:45:38;16.10;99.90
52034;DHT22;38045;52.988;6.536;2023-02-04T13:48:05;15.30;99.90
52034;DHT22;38045;52.988;6.536;2023-02-04T13:50:30;14.40;99.60
52034;DHT22;38045;52.988;6.536;2023-02-04T13:52:56;14.00;99.90
52034;DHT22;38045;52.988;6.536;2023-02-04T13:55:21;13.70;99.90
52034;DHT22;38045;52.988;6.536;2023-02-04T13:57:47;13.10;99.90
52034;DHT22;38045;52.988;6.536;2023-02-04T14:00:13;12.70;99.90
52034;DHT22;38045;52.988;6.536;2023-02-04T14:02:39;12.10;99.90
52034;DHT22;38045;52.988;6.536;2023-02-04T14:05:05;11.70;99.90
52034;DHT22;38045;52.988;6.536;2023-02-04T14:07:31;11.30;99.90
52034;DHT22;38045;52.988;6.536;2023-02-04T14:09:57;11.40;99.90
52034;DHT22;38045;52.988;6.536;2023-02-04T14:12:23;11.50;99.90
52034;DHT22;38045;52.988;6.536;2023-02-04T14:14:49;11.40;99.90
52034;DHT22;38045;52.988;6.536;2023-02-04T14:17:14;11.10;99.90
52034;DHT22;38045;52.988;6.536;2023-02-04T14:19:40;11.00;99.90
52034;DHT22;38045;52.988;6.536;2023-02-04T14:22:06;11.20;99.90
52034;DHT22;38045;52.988;6.536;2023-02-04T14:24:32;11.50;99.90
52034;DHT22;38045;52.988;6.536;2023-02-04T14:26:57;11.30;99.90
52034;DHT22;38045;52.988;6.536;2023-02-04T14:29:23;11.20;99.90
52034;DHT22;38045;52.988;6.536;2023-02-04T14:31:49;11.50;99.90
52034;DHT22;38045;52.988;6.536;2023-02-04T14:34:14;12.10;99.90
52034;DHT22;38045;52.988;6.536;2023-02-04T14:36:40;12.40;99.90
52034;DHT22;38045;52.988;6.536;2023-02-04T14:39:06;12.70;99.90
52034;DHT22;38045;52.988;6.536;2023-02-04T14:41:31;13.20;99.90
52034;DHT22;38045;52.988;6.536;2023-02-04T14:43:57;14.00;99.90
52034;DHT22;38045;52.988;6.536;2023-02-04T14:46:22;14.60;99.90
52034;DHT22;38045;52.988;6.536;2023-02-04T14:48:48;15.00;99.90
52034;DHT22;38045;52.988;6.536;2023-02-04T14:51:16;15.40;99.90
52034;DHT22;38045;52.988;6.536;2023-02-04T14:53:43;15.80;99.90
52034;DHT22;38045;52.988;6.536;2023-02-04T14:56:09;16.40;99.90
52034;DHT22;38045;52.988;6.536;2023-02-04T14:58:35;16.60;99.50
52034;DHT22;38045;52.988;6.536;2023-02-04T15:01:00;16.80;97.10
52034;DHT22;38045;52.988;6.536;2023-02-04T15:03:26;17.00;98.70
52034;DHT22;38045;52.988;6.536;2023-02-04T15:05:51;17.40;99.90
52034;DHT22;38045;52.988;6.536;2023-02-04T15:08:17;17.10;98.40
52034;DHT22;38045;52.988;6.536;2023-02-04T15:10:43;16.90;98.80
52034;DHT22;38045;52.988;6.536;2023-02-04T15:13:08;16.70;99.90
52034;DHT22;38045;52.988;6.536;2023-02-04T15:15:34;15.50;99.00
52034;DHT22;38045;52.988;6.536;2023-02-04T15:17:59;15.10;99.90
52034;DHT22;38045;52.988;6.536;2023-02-04T15:20:25;14.50;97.00
52034;DHT22;38045;52.988;6.536;2023-02-04T15:22:50;14.10;99.40
52034;DHT22;38045;52.988;6.536;2023-02-04T15:25:18;13.50;98.80
52034;DHT22;38045;52.988;6.536;2023-02-04T15:27:43;13.00;99.90
52034;DHT22;38045;52.988;6.536;2023-02-04T15:30:09;12.60;99.90
52034;DHT22;38045;52.988;6.536;2023-02-04T15:32:35;12.10;99.90
52034;DHT22;38045;52.988;6.536;2023-02-04T15:35:01;11.50;99.90
52034;DHT22;38045;52.988;6.536;2023-02-04T15:37:27;11.00;99.90
52034;DHT22;38045;52.988;6.536;2023-02-04T15:39:52;10.50;99.90
52034;DHT22;38045;52.988;6.536;2023-02-04T15:42:18;10.10;99.90
52034;DHT22;38045;52.988;6.536;2023-02-04T15:44:44;9.60;99.90
52034;DHT22;38045;52.988;6.536;2023-02-04T15:47:10;9.30;99.90
52034;DHT22;38045;52.988;6.536;2023-02-04T15:49:35;9.00;99.90
52034;DHT22;38045;52.988;6.536;2023-02-04T15:52:02;8.80;99.90